Terminal Aerodrome Forecast
Issued by NWS Grand Forks, ND

Home | Current Version | Previous Version | Graphics & Text | Print | Product List | Glossary On
Versions: 1 2 3 4 5 6 7 8 9 10 11 12 13 14 15
000
FTUS43 KFGF 210520
TAFFAR
TAF
KFAR 210520Z 2106/2206 12004KT P6SM FEW150
     FM211200 15009KT P6SM VCSH BKN100
     FM211500 16011KT P6SM BKN100
     FM211800 17013KT P6SM SCT110
     FM212200 20013KT P6SM SCT100
     FM212300 23012KT P6SM SCT050
     FM220200 30008KT P6SM FEW110=

USA.gov is the U.S. government's official web portal to all federal, state and local government web resources and services.